Thunderstorms From: 20-05-2018 05:00 Until: 21-05-2018 05:00 warning for: Thunderstorms Level: Yellow info button

Although rather usual in this region, locally or potentially dangerous phenomena are expected. (such as local winds, summer thunderstorms, rising streams or high waves) Be aware and pay attention to the latest weather updates, especially if you carry out activities exposed to weather or close to a stream or shoreline. 


Meteo18 Weather Cam more information Meteo18 Weather Cam


warning for Thunderstorms more information blitzortung!


Rain radar more information rain snow radar


Visit our other weather sites:

Template documentation
and downloads

And another site



Weather Underground History page Text

Daily Summary for July 17, 2017 Units:  Metric    English   Both
« Previous Day
Next Day »
Daily Weekly Monthly Yearly Custom
  High: Low: Average:
Temperature: -17.8 °C -8.4 °C -4.1 °C
Dew Point: -17.8 °C -9.6 °C -9.1 °C
Humidity: Humidity % 38 % 60 %
Wind Speed: 0 km/h 0 km/h 6 km/h
Wind Gust: 0 km/h - -
Wind:- - SE
Pressure: 0 hPa 34452.6 hPa -
Precipitation: 0 mm    
Historical Graphs
 
 
Tabular Data for July 17, 2017
Time Temperature Dew Point Pressure Wind Wind Speed Wind Gust Humidity Rainfall Rate (Hourly)
-17.8 °C -17.8 °C 0 hPa Calm     Humidity % 0 mm
00:02 -6.3 °C -9.1 °C 34625.2 hPa WNW 5.1 km/h 5.1 km/h 73 % 0 mm
00:07 -6.4 °C -9.1 °C 34625.2 hPa Calm   5.1 km/h 74 % 0 mm
00:12 -6.5 °C -9.2 °C 34625.2 hPa Calm   5.1 km/h 74 % 0 mm
00:17 -6.6 °C -9.1 °C 34625.2 hPa Calm   5.1 km/h 75 % 0 mm
00:22 -6.6 °C -9.2 °C 34625.2 hPa Calm   5.1 km/h 75 % 0 mm
00:27 -6.6 °C -9.2 °C 34625.2 hPa NNW 2.6 km/h 2.6 km/h 74 % 0 mm
00:32 -6.4 °C -9.2 °C 34625.2 hPa NNW 2.6 km/h 2.6 km/h 73 % 0 mm
00:42 -6.2 °C -9.2 °C 34625.2 hPa Calm   5.1 km/h 71 % 0 mm
00:52 -6.2 °C -9.3 °C 34611.7 hPa Calm   5.1 km/h 71 % 0 mm
00:57 -6.3 °C -9.2 °C 34611.7 hPa Calm   2.6 km/h 72 % 0 mm
01:02 -6.6 °C -9.2 °C 34611.7 hPa WNW 2.6 km/h 5.1 km/h 75 % 0 mm
01:07 -6.7 °C -9.2 °C 34611.7 hPa WNW 2.6 km/h 5.1 km/h 76 % 0 mm
01:12 -6.8 °C -9.2 °C 34611.7 hPa Calm   5.1 km/h 76 % 0 mm
01:17 -6.9 °C -9.2 °C 34611.7 hPa Calm   5.1 km/h 77 % 0 mm
01:22 -7 °C -9.3 °C 34611.7 hPa Calm   2.6 km/h 77 % 0 mm
01:27 -7 °C -9.2 °C 34611.7 hPa Calm   2.6 km/h 78 % 0 mm
01:32 -7 °C -9.2 °C 34611.7 hPa Calm   2.6 km/h 78 % 0 mm
01:37 -7.1 °C -9.2 °C 34611.7 hPa Calm   2.6 km/h 78 % 0 mm
01:42 -7.1 °C -9.3 °C 34611.7 hPa Calm   2.6 km/h 78 % 0 mm
01:47 -7.1 °C -9.2 °C 34611.7 hPa Calm   2.6 km/h 79 % 0 mm
01:52 -7.2 °C -9.2 °C 34611.7 hPa Calm   2.6 km/h 79 % 0 mm
01:57 -7.3 °C -9.3 °C 34611.7 hPa WNW 2.6 km/h 2.6 km/h 79 % 0 mm
02:02 -7.3 °C -9.3 °C 34601.5 hPa WNW 2.6 km/h 5.1 km/h 80 % 0 mm
02:07 -7.4 °C -9.2 °C 34611.7 hPa WNW 2.6 km/h 5.1 km/h 81 % 0 mm
02:17 -7.5 °C -9.3 °C 34601.5 hPa Calm   5.1 km/h 81 % 0 mm
02:22 -7.6 °C -9.4 °C 34601.5 hPa Calm   2.6 km/h 81 % 0 mm
02:27 -7.6 °C -9.3 °C 34601.5 hPa Calm   2.6 km/h 82 % 0 mm
02:32 -7.6 °C -9.3 °C 34601.5 hPa Calm   2.6 km/h 82 % 0 mm
02:37 -7.6 °C -9.4 °C 34601.5 hPa Calm   2.6 km/h 81 % 0 mm
02:42 -7.7 °C -9.4 °C 34601.5 hPa Calm   2.6 km/h 82 % 0 mm
02:47 -7.7 °C -9.3 °C 34601.5 hPa WNW 2.6 km/h 2.6 km/h 83 % 0 mm
02:52 -7.8 °C -9.4 °C 34601.5 hPa WNW 2.6 km/h 5.1 km/h 83 % 0 mm
02:57 -7.9 °C -9.4 °C 34601.5 hPa Calm   5.1 km/h 84 % 0 mm
03:02 -7.9 °C -9.4 °C 34601.5 hPa Calm   5.1 km/h 84 % 0 mm
03:07 -7.8 °C -9.3 °C 34591.4 hPa Calm   5.1 km/h 84 % 0 mm
03:12 -7.7 °C -9.3 °C 34591.4 hPa NW 2.6 km/h 2.6 km/h 83 % 0 mm
03:17 -7.8 °C -9.3 °C 34591.4 hPa WNW 2.6 km/h 5.1 km/h 84 % 0 mm
03:22 -7.9 °C -9.4 °C 34591.4 hPa Calm   5.1 km/h 84 % 0 mm
03:27 -7.8 °C -9.3 °C 34591.4 hPa Calm   5.1 km/h 84 % 0 mm
03:32 -7.7 °C -9.3 °C 34591.4 hPa Calm   5.1 km/h 83 % 0 mm
03:37 -7.7 °C -9.3 °C 34591.4 hPa Calm   2.6 km/h 83 % 0 mm
03:42 -7.8 °C -9.4 °C 34591.4 hPa North 2.6 km/h 2.6 km/h 83 % 0 mm
03:47 -7.8 °C -9.3 °C 34591.4 hPa NNW 5.1 km/h 5.1 km/h 84 % 0 mm
03:52 -7.6 °C -9.2 °C 34591.4 hPa North 7.7 km/h 10.3 km/h 83 % 0 mm
03:57 -7.6 °C -9.3 °C 34591.4 hPa WNW 7.7 km/h 10.3 km/h 82 % 0 mm
04:02 -7.5 °C -9.2 °C 34591.4 hPa NW 5.1 km/h 12.9 km/h 82 % 0 mm
04:07 -7.4 °C -9.3 °C 34591.4 hPa NW 2.6 km/h 12.9 km/h 81 % 0 mm
04:12 -7.3 °C -9.3 °C 34591.4 hPa NW 2.6 km/h 10.3 km/h 80 % 0 mm
04:17 -7.3 °C -9.2 °C 34591.4 hPa WNW 5.1 km/h 7.7 km/h 81 % 0 mm
04:27 -7.3 °C -9.2 °C 34591.4 hPa Calm   7.7 km/h 80 % 0 mm
04:32 -7.4 °C -9.2 °C 34591.4 hPa NNW 2.6 km/h 7.7 km/h 81 % 0 mm
04:37 -7.4 °C -9.3 °C 34591.4 hPa Calm   5.1 km/h 81 % 0 mm
04:42 -7.4 °C -9.3 °C 34591.4 hPa Calm   5.1 km/h 81 % 0 mm
04:47 -7.6 °C -9.3 °C 34591.4 hPa North 2.6 km/h 2.6 km/h 82 % 0 mm
04:52 -7.6 °C -9.3 °C 34591.4 hPa North 2.6 km/h 2.6 km/h 82 % 0 mm
04:57 -7.6 °C -9.3 °C 34591.4 hPa NNW 2.6 km/h 2.6 km/h 82 % 0 mm
05:07 -7.6 °C -9.3 °C 34591.4 hPa Calm   2.6 km/h 82 % 0 mm
05:12 -7.7 °C -9.3 °C 34591.4 hPa NW 2.6 km/h 2.6 km/h 83 % 0 mm
05:17 -7.6 °C -9.2 °C 34591.4 hPa Calm   5.1 km/h 84 % 0 mm
05:22 -7.8 °C -9.4 °C 34591.4 hPa Calm   5.1 km/h 83 % 0 mm
05:32 -8 °C -9.4 °C 34591.4 hPa WNW 2.6 km/h 5.1 km/h 85 % 0 mm
05:37 -8.1 °C -9.4 °C 34591.4 hPa WNW 2.6 km/h 2.6 km/h 86 % 0 mm
05:42 -8.1 °C -9.3 °C 34591.4 hPa Calm   2.6 km/h 87 % 0 mm
05:52 -8.2 °C -9.5 °C 34601.5 hPa Calm   2.6 km/h 86 % 0 mm
05:57 -8.2 °C -9.4 °C 34601.5 hPa Calm   2.6 km/h 87 % 0 mm
06:02 -8.2 °C -9.4 °C 34601.5 hPa Calm   2.6 km/h 87 % 0 mm
06:12 -8.2 °C -9.3 °C 34601.5 hPa Calm   2.6 km/h 88 % 0 mm
06:17 -8.2 °C -9.3 °C 34601.5 hPa Calm   2.6 km/h 88 % 0 mm
06:22 -8.1 °C -9.2 °C 34601.5 hPa WNW 2.6 km/h 2.6 km/h 88 % 0 mm
06:32 -8.1 °C -9.4 °C 34601.5 hPa Calm   2.6 km/h 86 % 0 mm
06:42 -8.4 °C -9.4 °C 34601.5 hPa Calm   2.6 km/h 89 % 0 mm
06:47 -8.3 °C -9.3 °C 34601.5 hPa Calm   2.6 km/h 89 % 0 mm
06:52 -8.3 °C -9.3 °C 34601.5 hPa Calm   2.6 km/h 89 % 0 mm
06:57 -8.1 °C -9.1 °C 34601.5 hPa Calm     89 % 0 mm
07:02 -8 °C -9.1 °C 34601.5 hPa Calm     88 % 0 mm
07:12 -7.7 °C -8.9 °C 34601.5 hPa Calm     87 % 0 mm
07:17 -7.6 °C -8.8 °C 34601.5 hPa Calm     87 % 0 mm
07:27 -6.7 °C -8.2 °C 34601.5 hPa Calm     84 % 0 mm
07:32 -6.5 °C -8.5 °C 34601.5 hPa Calm     80 % 0 mm
07:42 -6.4 °C -8.5 °C 34601.5 hPa Calm     79 % 0 mm
07:47 -6.4 °C -8.6 °C 34601.5 hPa NNE 2.6 km/h 5.1 km/h 78 % 0 mm
07:52 -6.3 °C -8.4 °C 34601.5 hPa NNE 5.1 km/h 7.7 km/h 79 % 0 mm
07:57 -6.3 °C -8.4 °C 34601.5 hPa Calm   7.7 km/h 79 % 0 mm
08:02 -6.1 °C -8.3 °C 34601.5 hPa NNE 5.1 km/h 7.7 km/h 78 % 0 mm
08:12 -5.9 °C -8.3 °C 34611.7 hPa NNE 2.6 km/h 5.1 km/h 76 % 0 mm
08:17 -5.8 °C -8.2 °C 34611.7 hPa Calm   5.1 km/h 76 % 0 mm
08:22 -5.6 °C -8.2 °C 34611.7 hPa ENE 2.6 km/h 5.1 km/h 75 % 0 mm
08:32 -5.6 °C -8.2 °C 34611.7 hPa ENE 2.6 km/h 5.1 km/h 75 % 0 mm
08:42 -5.4 °C -7.9 °C 34601.5 hPa ENE 2.6 km/h 7.7 km/h 75 % 0 mm
08:47 -5.3 °C -8 °C 34601.5 hPa NE 5.1 km/h 7.7 km/h 74 % 0 mm
08:52 -5.2 °C -8.2 °C 34611.7 hPa East 5.1 km/h 7.7 km/h 71 % 0 mm
08:57 -5.1 °C -8.1 °C 34601.5 hPa Calm   7.7 km/h 71 % 0 mm
09:02 -4.9 °C -8.1 °C 34601.5 hPa North 5.1 km/h 7.7 km/h 70 % 0 mm
09:12 -4.4 °C -8 °C 34601.5 hPa Calm   7.7 km/h 67 % 0 mm
09:17 -4.2 °C -8.2 °C 34601.5 hPa SW 5.1 km/h 5.1 km/h 64 % 0 mm
09:22 -4.1 °C -8 °C 34601.5 hPa SSW 7.7 km/h 7.7 km/h 65 % 0 mm
09:32 -4.1 °C -8.2 °C 34601.5 hPa SE 2.6 km/h 5.1 km/h 63 % 0 mm
09:42 -3.4 °C -8.1 °C 34601.5 hPa Calm   7.7 km/h 60 % 0 mm
09:52 -3.3 °C -8.2 °C 34601.5 hPa SW 10.3 km/h 10.3 km/h 58 % 0 mm
09:57 -3.4 °C -8.4 °C 34601.5 hPa East 5.1 km/h 10.3 km/h 58 % 0 mm
10:02 -3.3 °C -8.2 °C 34601.5 hPa Calm   10.3 km/h 58 % 0 mm
10:12 -3.2 °C -8.4 °C 34601.5 hPa Calm   10.3 km/h 56 % 0 mm
10:17 -3 °C -8.4 °C 34591.4 hPa WSW 5.1 km/h 15.6 km/h 55 % 0 mm
10:22 -3 °C -8.3 °C 34591.4 hPa Calm   15.6 km/h 56 % 0 mm
10:32 -2.9 °C -8.3 °C 34591.4 hPa East 10.3 km/h 10.3 km/h 55 % 0 mm
10:42 -3 °C -8.3 °C 34591.4 hPa SE 7.7 km/h 15.6 km/h 56 % 0 mm
10:52 -2.9 °C -8.1 °C 34591.4 hPa ENE 5.1 km/h 15.6 km/h 57 % 0 mm
10:57 -2.9 °C -8.5 °C 34591.4 hPa ENE 18.2 km/h 20.8 km/h 54 % 0 mm
11:02 -2.9 °C -8.2 °C 34591.4 hPa East 5.1 km/h 20.8 km/h 56 % 0 mm
11:12 -2.8 °C -8.3 °C 34591.4 hPa East 7.7 km/h 23.3 km/h 55 % 0 mm
11:17 -2.6 °C -8.2 °C 34591.4 hPa ENE 18.2 km/h 23.3 km/h 54 % 0 mm
11:22 -2.4 °C -8.2 °C 34591.4 hPa Calm   20.8 km/h 53 % 0 mm
11:32 -2.4 °C -8.4 °C 34577.8 hPa SE 7.7 km/h 18.2 km/h 52 % 0 mm
11:42 -2.3 °C -8.2 °C 34577.8 hPa ENE 15.6 km/h 18.2 km/h 53 % 0 mm
11:47 -2.3 °C -8.3 °C 34577.8 hPa East 12.9 km/h 23.3 km/h 52 % 0 mm
11:52 -2.4 °C -8.4 °C 34577.8 hPa NE 15.6 km/h 33.6 km/h 52 % 0 mm
11:57 -2.4 °C -8.6 °C 34577.8 hPa ENE 5.1 km/h 33.6 km/h 51 % 0 mm
12:02 -2.4 °C -8.4 °C 34577.8 hPa NE 12.9 km/h 41.4 km/h 52 % 0 mm
12:12 -2.3 °C -8.4 °C 34577.8 hPa ENE 18.2 km/h 41.4 km/h 51 % 0 mm
12:17 -2.2 °C -8.3 °C 34567.7 hPa NE 7.7 km/h 23.3 km/h 51 % 0 mm
12:22 -2.3 °C -8.3 °C 34567.7 hPa NE 7.7 km/h 23.3 km/h 52 % 0 mm
12:32 -2.2 °C -8.2 °C 34567.7 hPa NE 15.6 km/h 25.9 km/h 52 % 0 mm
12:37 -2.1 °C -8.4 °C 34567.7 hPa ENE 18.2 km/h 25.9 km/h 50 % 0 mm
12:42 -2.2 °C -8.4 °C 34567.7 hPa ENE 12.9 km/h 25.9 km/h 51 % 0 mm
12:47 -2.1 °C -8.1 °C 34567.7 hPa SSE 2.6 km/h 28.5 km/h 52 % 0 mm
12:52 -1.8 °C -8.6 °C 34567.7 hPa ENE 20.8 km/h 28.5 km/h 48 % 0 mm
12:57 -1.7 °C -8.4 °C 34567.7 hPa ESE 12.9 km/h 28.5 km/h 48 % 0 mm
13:02 -1.8 °C -8.5 °C 34554.1 hPa ESE 2.6 km/h 28.5 km/h 48 % 0 mm
13:12 -1.9 °C -8.3 °C 34554.1 hPa NE 18.2 km/h 31.1 km/h 50 % 0 mm
13:17 -1.8 °C -8.6 °C 34554.1 hPa ENE 25.9 km/h 28.5 km/h 48 % 0 mm
13:22 -1.6 °C -8.6 °C 34554.1 hPa NE 25.9 km/h 28.5 km/h 47 % 0 mm
13:32 -2 °C -8.9 °C 34554.1 hPa NE 15.6 km/h 28.5 km/h 47 % 0 mm
13:37 -1.8 °C -8.7 °C 34544 hPa NNE 5.1 km/h 28.5 km/h 47 % 0 mm
13:42 -1.8 °C -8.9 °C 34554.1 hPa NE 15.6 km/h 33.6 km/h 46 % 0 mm
13:47 -2 °C -9.1 °C 34544 hPa NE 10.3 km/h 33.6 km/h 46 % 0 mm
13:57 -1.6 °C -8.9 °C 34544 hPa ENE 23.3 km/h 31.1 km/h 45 % 0 mm
14:02 -1.6 °C -8.9 °C 34544 hPa NNE 7.7 km/h 31.1 km/h 45 % 0 mm
14:07 -1.4 °C -8.9 °C 34544 hPa ESE 25.9 km/h 31.1 km/h 44 % 0 mm
14:12 -1.3 °C -9.3 °C 34544 hPa ENE 18.2 km/h 33.6 km/h 42 % 0 mm
14:17 -1.3 °C -9 °C 34544 hPa ENE 12.9 km/h 33.6 km/h 43 % 0 mm
14:22 -1.4 °C -9.6 °C 34533.8 hPa ENE 2.6 km/h 33.6 km/h 41 % 0 mm
14:27 -1.3 °C -9.1 °C 34533.8 hPa East 15.6 km/h 31.1 km/h 43 % 0 mm
14:32 -1.2 °C -8.9 °C 34533.8 hPa ENE 23.3 km/h 31.1 km/h 43 % 0 mm
14:37 -1.2 °C -8.9 °C 34533.8 hPa ESE 5.1 km/h 31.1 km/h 43 % 0 mm
14:42 -1.2 °C -8.9 °C 34533.8 hPa ENE 15.6 km/h 33.6 km/h 43 % 0 mm
14:47 -1.2 °C -9.2 °C 34533.8 hPa ENE 7.7 km/h 33.6 km/h 42 % 0 mm
14:52 -1.2 °C -8.9 °C 34533.8 hPa East 5.1 km/h 33.6 km/h 43 % 0 mm
14:57 -1 °C -9.2 °C 34533.8 hPa SE 12.9 km/h 25.9 km/h 41 % 0 mm
15:02 -0.7 °C -9.2 °C 34520.3 hPa ENE 20.8 km/h 20.8 km/h 40 % 0 mm
15:12 -0.7 °C -9.3 °C 34520.3 hPa East 15.6 km/h 38.8 km/h 39 % 0 mm
15:17 -0.8 °C -9.6 °C 34520.3 hPa ENE 18.2 km/h 38.8 km/h 38 % 0 mm
15:22 -0.9 °C -9.5 °C 34520.3 hPa NE 7.7 km/h 44.1 km/h 39 % 0 mm
15:32 -0.9 °C -9.6 °C 34520.3 hPa ENE 18.2 km/h 36.2 km/h 39 % 0 mm
15:37 -0.9 °C -9.6 °C 34510.1 hPa ENE 18.2 km/h 36.2 km/h 39 % 0 mm
15:42 -0.8 °C -9.2 °C 34510.1 hPa East 10.3 km/h 36.2 km/h 40 % 0 mm
15:47 -0.7 °C -9.6 °C 34510.1 hPa East 10.3 km/h 31.1 km/h 38 % 0 mm
15:52 -0.7 °C -9.6 °C 34510.1 hPa ENE 25.9 km/h 31.1 km/h 38 % 0 mm
15:57 -0.7 °C -9.6 °C 34510.1 hPa ENE 10.3 km/h 31.1 km/h 38 % 0 mm
16:02 -0.7 °C -9.3 °C 34510.1 hPa ENE 5.1 km/h 33.6 km/h 39 % 0 mm
16:12 -0.3 °C -9.2 °C 34496.6 hPa ENE 18.2 km/h 25.9 km/h 38 % 0 mm
16:17 -0.7 °C -9.3 °C 34496.6 hPa NE 15.6 km/h 28.5 km/h 39 % 0 mm
16:22 -1 °C -9.4 °C 34496.6 hPa ESE 7.7 km/h 28.5 km/h 40 % 0 mm
16:32 -0.7 °C -9.3 °C 34496.6 hPa ENE 15.6 km/h 23.3 km/h 39 % 0 mm
16:37 -0.8 °C -9.2 °C 34496.6 hPa NE 10.3 km/h 23.3 km/h 40 % 0 mm
16:42 -0.6 °C -9 °C 34496.6 hPa NE 28.5 km/h 28.5 km/h 40 % 0 mm
16:47 -0.8 °C -9.2 °C 34496.6 hPa East 12.9 km/h 31.1 km/h 40 % 0 mm
16:52 -1.2 °C -9.1 °C 34496.6 hPa NNE 18.2 km/h 31.1 km/h 42 % 0 mm
16:57 -1.2 °C -9.4 °C 34496.6 hPa East 5.1 km/h 31.1 km/h 41 % 0 mm
17:02 -0.9 °C -9.1 °C 34496.6 hPa ESE 7.7 km/h 28.5 km/h 41 % 0 mm
17:12 -0.4 °C -8.8 °C 34486.4 hPa SE 10.3 km/h 15.6 km/h 40 % 0 mm
17:17 -0.4 °C -8.9 °C 34486.4 hPa East 15.6 km/h 33.6 km/h 40 % 0 mm
17:22 -0.4 °C -8.8 °C 34486.4 hPa ESE 10.3 km/h 33.6 km/h 40 % 0 mm
17:27 -0.5 °C -9.2 °C 34476.3 hPa ESE 12.9 km/h 33.6 km/h 39 % 0 mm
17:32 -0.5 °C -8.9 °C 34476.3 hPa ENE 18.2 km/h 25.9 km/h 40 % 0 mm
17:37 -0.4 °C -8.9 °C 34476.3 hPa ENE 5.1 km/h 25.9 km/h 40 % 0 mm
17:42 -0.4 °C -8.8 °C 34476.3 hPa ENE 10.3 km/h 25.9 km/h 40 % 0 mm
17:47 -0.4 °C -9.1 °C 34476.3 hPa ENE 12.9 km/h 36.2 km/h 39 % 0 mm
17:52 -0.8 °C -9.4 °C 34476.3 hPa ENE 23.3 km/h 38.8 km/h 39 % 0 mm
17:57 -0.9 °C -9.1 °C 34476.3 hPa ENE 18.2 km/h 38.8 km/h 41 % 0 mm
18:02 -0.7 °C -9.1 °C 34476.3 hPa ENE 18.2 km/h 38.8 km/h 40 % 0 mm
18:07 -0.7 °C -8.9 °C 34462.7 hPa East 2.6 km/h 31.1 km/h 41 % 0 mm
18:12 -0.6 °C -9 °C 34462.7 hPa ENE 5.1 km/h 31.1 km/h 40 % 0 mm
18:17 -0.5 °C -9.2 °C 34462.7 hPa ESE 7.7 km/h 31.1 km/h 39 % 0 mm
18:22 -0.6 °C -9.3 °C 34462.7 hPa SSE 10.3 km/h 31.1 km/h 39 % 0 mm
18:27 -0.6 °C -9.1 °C 34462.7 hPa ENE 10.3 km/h 31.1 km/h 40 % 0 mm
18:32 -0.4 °C -9.1 °C 34462.7 hPa East 5.1 km/h 23.3 km/h 39 % 0 mm
18:42 -0.6 °C -9.3 °C 34462.7 hPa ENE 7.7 km/h 31.1 km/h 39 % 0 mm
18:47 -0.7 °C -9.3 °C 34462.7 hPa NE 10.3 km/h 38.8 km/h 39 % 0 mm
18:52 -0.9 °C -9.3 °C 34462.7 hPa ENE 20.8 km/h 38.8 km/h 40 % 0 mm
18:57 -0.9 °C -9.1 °C 34462.7 hPa ENE 15.6 km/h 38.8 km/h 41 % 0 mm
19:02 -0.9 °C -9.3 °C 34462.7 hPa ENE 10.3 km/h 31.1 km/h 40 % 0 mm
19:07 -0.8 °C -9.2 °C 34462.7 hPa East 12.9 km/h 31.1 km/h 40 % 0 mm
19:12 -0.9 °C -9.3 °C 34462.7 hPa ENE 7.7 km/h 31.1 km/h 40 % 0 mm
19:22 -0.8 °C -9.2 °C 34452.6 hPa ENE 7.7 km/h 25.9 km/h 40 % 0 mm
19:32 -0.8 °C -9.2 °C 34452.6 hPa ESE 10.3 km/h 18.2 km/h 40 % 0 mm
19:37 -0.7 °C -9.1 °C 34452.6 hPa ESE 2.6 km/h 18.2 km/h 40 % 0 mm
19:42 -0.7 °C -9.3 °C 34452.6 hPa East 10.3 km/h 15.6 km/h 39 % 0 mm
19:47 -0.8 °C -9.2 °C 34452.6 hPa East 12.9 km/h 31.1 km/h 40 % 0 mm
19:52 -0.9 °C -9.3 °C 34452.6 hPa East 2.6 km/h 31.1 km/h 40 % 0 mm
19:57 -0.9 °C -9.3 °C 34452.6 hPa East 18.2 km/h 31.1 km/h 40 % 0 mm
20:02 -0.9 °C -9.3 °C 34452.6 hPa East 2.6 km/h 25.9 km/h 40 % 0 mm
20:12 -0.9 °C -9.3 °C 34452.6 hPa ENE 5.1 km/h 25.9 km/h 40 % 0 mm
20:17 -1.1 °C -9.4 °C 34452.6 hPa East 12.9 km/h 18.2 km/h 40 % 0 mm
20:22 -1.2 °C -9.3 °C 34452.6 hPa East 7.7 km/h 18.2 km/h 41 % 0 mm
20:27 -1.2 °C -9.3 °C 34452.6 hPa East 2.6 km/h 18.2 km/h 41 % 0 mm
20:32 -1.2 °C -9.3 °C 34452.6 hPa East 7.7 km/h 18.2 km/h 41 % 0 mm
20:37 -1.2 °C -9.4 °C 34452.6 hPa ESE 2.6 km/h 18.2 km/h 41 % 0 mm
20:42 -1.3 °C -9.4 °C 34452.6 hPa East 5.1 km/h 15.6 km/h 41 % 0 mm
20:47 -1.3 °C -9.3 °C 34452.6 hPa NE 2.6 km/h 15.6 km/h 42 % 0 mm
20:52 -1.4 °C -9.4 °C 34452.6 hPa East 2.6 km/h 12.9 km/h 42 % 0 mm
20:57 -1.6 °C -9.3 °C 34452.6 hPa East 2.6 km/h 12.9 km/h 43 % 0 mm
21:02 -1.6 °C -9.3 °C 34452.6 hPa East 2.6 km/h 10.3 km/h 43 % 0 mm
21:07 -1.8 °C -9.3 °C 34452.6 hPa Calm   10.3 km/h 44 % 0 mm
21:12 -1.9 °C -9.2 °C 34462.7 hPa East 2.6 km/h 5.1 km/h 45 % 0 mm
21:17 -2.1 °C -9.2 °C 34462.7 hPa Calm   5.1 km/h 46 % 0 mm
21:22 -2.3 °C -9.2 °C 34462.7 hPa Calm   5.1 km/h 47 % 0 mm
21:32 -2.6 °C -9.1 °C 34452.6 hPa Calm   2.6 km/h 49 % 0 mm
21:37 -2.7 °C -9 °C 34462.7 hPa Calm   2.6 km/h 50 % 0 mm
21:42 -2.9 °C -8.8 °C 34462.7 hPa Calm   2.6 km/h 52 % 0 mm
21:52 -3.3 °C -9 °C 34462.7 hPa Calm   2.6 km/h 53 % 0 mm
21:57 -3.4 °C -9 °C 34462.7 hPa Calm     54 % 0 mm
22:07 -3.7 °C -9.1 °C 34462.7 hPa Calm     55 % 0 mm
22:12 -3.8 °C -9.1 °C 34462.7 hPa Calm     56 % 0 mm
22:17 -3.8 °C -9.1 °C 34462.7 hPa North 2.6 km/h   56 % 0 mm
22:22 -3.9 °C -9.1 °C 34462.7 hPa Calm   2.6 km/h 56 % 0 mm
22:27 -4 °C -9.1 °C 34462.7 hPa NW 2.6 km/h 2.6 km/h 57 % 0 mm
22:32 -4.1 °C -9.2 °C 34462.7 hPa Calm   5.1 km/h 57 % 0 mm
22:37 -4.3 °C -9.2 °C 34462.7 hPa Calm   5.1 km/h 58 % 0 mm
22:42 -4.4 °C -9.1 °C 34462.7 hPa Calm   5.1 km/h 59 % 0 mm
22:47 -4.4 °C -9.2 °C 34462.7 hPa NNW 2.6 km/h   59 % 0 mm
22:52 -4.5 °C -9.2 °C 34462.7 hPa North 2.6 km/h 5.1 km/h 59 % 0 mm
22:57 -4.6 °C -9.1 °C 34462.7 hPa North 2.6 km/h 5.1 km/h 60 % 0 mm
23:02 -4.6 °C -9.2 °C 34462.7 hPa Calm   5.1 km/h 60 % 0 mm
23:12 -4.9 °C -9.1 °C 34462.7 hPa Calm   5.1 km/h 63 % 0 mm
23:17 -5.1 °C -9.1 °C 34462.7 hPa Calm   2.6 km/h 64 % 0 mm
23:22 -5.2 °C -9.1 °C 34462.7 hPa Calm   2.6 km/h 65 % 0 mm
23:27 -5.2 °C -9 °C 34462.7 hPa Calm   2.6 km/h 65 % 0 mm
23:32 -5.2 °C -9.1 °C 34462.7 hPa NNE 5.1 km/h 5.1 km/h 65 % 0 mm
23:37 -5.3 °C -9.1 °C 34462.7 hPa NNW 5.1 km/h 7.7 km/h 66 % 0 mm
23:42 -5.3 °C -9.1 °C 34462.7 hPa NW 2.6 km/h 7.7 km/h 66 % 0 mm
23:47 -5.3 °C -9 °C 34462.7 hPa Calm   7.7 km/h 66 % 0 mm
23:52 -5.4 °C -9.1 °C 34462.7 hPa Calm   7.7 km/h 66 % 0 mm
23:57 -5.4 °C -9 °C 34462.7 hPa Calm   7.7 km/h 67 % 0 mm
Meteo18
Compliments of Weather Underground - 4 mb

Script developed by  Jim McMurry - jmcmurry@mwt.net Adapted for the template by  Wim van der Kuil - Leuven-Template.eu

You find our weather info also at:

European Weather Network

Weather Underground

Equipment we use:

Weather-station
Davis Vue

Weather-program
Meteobridge

Weather-server
Raspberry PI 2 B+

Provider
1 and 1

Davis Vue

Meteobridge

Raspberry PI 2 B+

1 and 1